createdAt,value
2024-01-06T00:02:10.647Z,11.23
2024-01-06T00:04:37.436Z,4.95
2024-01-06T00:07:04.460Z,3.17
2024-01-06T00:09:31.270Z,4.78
2024-01-06T00:11:58.190Z,3.53
2024-01-06T00:14:25.150Z,6.75
2024-01-06T00:16:51.996Z,5.25
2024-01-06T00:19:19.039Z,7.50
2024-01-06T00:21:46.382Z,4.22
2024-01-06T00:24:13.376Z,5.85
2024-01-06T00:26:40.406Z,6.07
2024-01-06T00:29:07.284Z,4.53
2024-01-06T00:31:34.345Z,3.05
2024-01-06T00:34:01.354Z,6.57
2024-01-06T00:36:28.337Z,4.82
2024-01-06T00:38:55.092Z,5.65
2024-01-06T00:41:21.842Z,6.93
2024-01-06T00:43:48.715Z,7.03
2024-01-06T00:46:15.528Z,8.50
2024-01-06T00:48:43.008Z,2.92
2024-01-06T00:51:09.892Z,5.05
2024-01-06T00:53:37.002Z,3.65
2024-01-06T00:56:04.124Z,9.02
2024-01-06T00:58:30.911Z,5.55
2024-01-06T01:00:57.842Z,3.92
2024-01-06T01:03:24.805Z,5.53
2024-01-06T01:05:51.703Z,8.02
2024-01-06T01:08:18.535Z,6.43
2024-01-06T01:10:46.534Z,7.25
2024-01-06T01:13:13.355Z,4.45
2024-01-06T01:15:40.674Z,4.30
2024-01-06T01:18:07.787Z,4.43
2024-01-06T01:20:34.657Z,3.67
2024-01-06T01:23:01.494Z,8.27
2024-01-06T01:25:28.284Z,4.32
2024-01-06T01:27:55.112Z,4.10
2024-01-06T01:30:22.087Z,6.53
2024-01-06T01:32:49.062Z,7.57
2024-01-06T01:35:16.114Z,3.72
2024-01-06T01:37:42.919Z,5.03
2024-01-06T01:40:10.216Z,3.78
2024-01-06T01:42:37.248Z,4.28
2024-01-06T01:45:06.014Z,5.53
2024-01-06T01:47:38.454Z,3.75
2024-01-06T01:50:06.310Z,4.72
2024-01-06T01:52:33.955Z,9.02
2024-01-06T01:55:00.884Z,3.03
2024-01-06T01:57:28.689Z,3.55
2024-01-06T01:59:56.650Z,3.60
2024-01-06T02:02:24.353Z,2.15
2024-01-06T02:04:51.354Z,7.88
2024-01-06T02:07:18.575Z,5.80
2024-01-06T02:09:45.513Z,4.95
2024-01-06T02:12:12.384Z,3.05
2024-01-06T02:14:39.778Z,3.38
2024-01-06T02:17:06.777Z,8.27
2024-01-06T02:19:33.700Z,3.92
2024-01-06T02:22:00.544Z,9.55
2024-01-06T02:24:27.529Z,3.03
2024-01-06T02:26:54.421Z,5.40
2024-01-06T02:29:21.711Z,5.78
2024-01-06T02:31:48.652Z,6.80
2024-01-06T02:34:15.706Z,2.90
2024-01-06T02:36:42.595Z,5.03
2024-01-06T02:39:09.482Z,4.20
2024-01-06T02:41:36.424Z,2.38
2024-01-06T02:44:05.101Z,3.50
2024-01-06T02:46:31.953Z,6.15
2024-01-06T02:48:58.942Z,7.10
2024-01-06T02:51:25.953Z,4.22
2024-01-06T02:53:52.764Z,3.15
2024-01-06T02:56:19.996Z,5.03
2024-01-06T02:58:46.790Z,3.45
2024-01-06T03:01:14.167Z,7.47
2024-01-06T03:03:41.091Z,10.75
2024-01-06T03:06:07.969Z,7.63
2024-01-06T03:08:35.778Z,1.98
2024-01-06T03:11:05.021Z,2.50
2024-01-06T03:13:31.835Z,7.72
2024-01-06T03:15:58.685Z,7.18
2024-01-06T03:18:25.700Z,9.32
2024-01-06T03:20:52.893Z,5.25
2024-01-06T03:23:19.839Z,5.60
2024-01-06T03:25:46.654Z,6.85
2024-01-06T03:28:13.476Z,8.35
2024-01-06T03:30:40.677Z,6.63
2024-01-06T03:33:08.227Z,3.72
2024-01-06T03:35:35.111Z,3.67
2024-01-06T03:38:01.884Z,4.40
2024-01-06T03:40:28.671Z,4.78
2024-01-06T03:42:55.601Z,5.97
2024-01-06T03:45:22.478Z,8.88
2024-01-06T03:47:49.334Z,7.75
2024-01-06T03:50:16.271Z,7.75
2024-01-06T03:52:43.180Z,3.85
2024-01-06T03:55:10.247Z,2.65
2024-01-06T03:57:37.481Z,10.50
2024-01-06T04:00:05.276Z,2.80
2024-01-06T04:02:34.870Z,5.25
2024-01-06T04:05:01.969Z,3.00
2024-01-06T04:07:29.012Z,7.72
2024-01-06T04:09:55.876Z,4.80
2024-01-06T04:12:22.853Z,2.13
2024-01-06T04:14:49.728Z,3.97
2024-01-06T04:17:16.550Z,8.75
2024-01-06T04:19:43.476Z,3.08
2024-01-06T04:22:10.326Z,2.47
2024-01-06T04:24:38.526Z,6.25
2024-01-06T04:27:06.102Z,2.60
2024-01-06T04:29:33.256Z,4.47
2024-01-06T04:32:00.172Z,3.60
2024-01-06T04:34:27.089Z,3.67
2024-01-06T04:36:54.163Z,4.18
2024-01-06T04:39:21.466Z,6.53
2024-01-06T04:41:48.263Z,6.60
2024-01-06T04:44:15.177Z,6.50
2024-01-06T04:46:41.949Z,7.68
2024-01-06T04:49:08.887Z,7.13
2024-01-06T04:51:35.888Z,5.03
2024-01-06T04:54:02.684Z,5.13
2024-01-06T04:56:30.406Z,6.45
2024-01-06T04:58:58.943Z,6.80
2024-01-06T05:01:25.997Z,10.23
2024-01-06T05:03:53.011Z,6.25
2024-01-06T05:06:20.057Z,2.63
2024-01-06T05:08:47.424Z,7.85
2024-01-06T05:11:14.654Z,6.68
2024-01-06T05:13:41.777Z,6.72
2024-01-06T05:16:09.992Z,11.45
2024-01-06T05:18:37.062Z,9.70
2024-01-06T05:21:04.594Z,6.65
2024-01-06T05:23:31.442Z,12.15
2024-01-06T05:25:58.296Z,6.70
2024-01-06T05:28:25.155Z,6.32
2024-01-06T05:30:52.023Z,3.15
2024-01-06T05:33:19.315Z,5.45
2024-01-06T05:35:46.225Z,5.78
2024-01-06T05:38:13.161Z,10.77
2024-01-06T05:40:40.002Z,5.38
2024-01-06T05:43:07.087Z,3.63
2024-01-06T05:45:34.492Z,3.17
2024-01-06T05:48:01.496Z,6.53
2024-01-06T05:50:28.369Z,4.00
2024-01-06T05:52:55.144Z,3.75
2024-01-06T05:55:22.750Z,6.80
2024-01-06T05:57:49.615Z,4.53
2024-01-06T06:00:18.152Z,2.10
2024-01-06T06:02:45.038Z,4.63
2024-01-06T06:05:12.182Z,4.60
2024-01-06T06:07:40.753Z,5.63
2024-01-06T06:10:12.755Z,2.75
2024-01-06T06:12:40.135Z,1.90
2024-01-06T06:15:07.852Z,2.00
2024-01-06T06:17:35.248Z,6.25
2024-01-06T06:20:02.297Z,2.40
2024-01-06T06:22:31.697Z,2.65
2024-01-06T06:25:02.109Z,1.33
2024-01-06T06:27:29.049Z,1.98
2024-01-06T06:29:57.597Z,0.95
2024-01-06T06:32:24.896Z,1.17
2024-01-06T06:34:52.184Z,1.08
2024-01-06T06:37:19.030Z,3.33
2024-01-06T06:39:46.278Z,2.65
2024-01-06T06:42:13.584Z,1.52
2024-01-06T06:44:40.410Z,1.15
2024-01-06T06:47:07.269Z,3.00
2024-01-06T06:49:34.297Z,3.58
2024-01-06T06:52:01.214Z,1.48
2024-01-06T06:54:28.061Z,2.35
2024-01-06T06:56:54.911Z,1.98
2024-01-06T06:59:21.990Z,2.72
2024-01-06T07:01:48.857Z,1.80
2024-01-06T07:04:15.998Z,1.10
2024-01-06T07:06:43.094Z,1.80
2024-01-06T07:09:09.876Z,2.83
2024-01-06T07:11:36.775Z,2.97
2024-01-06T07:14:03.637Z,1.90
2024-01-06T07:16:30.681Z,1.73
2024-01-06T07:18:57.751Z,4.13
2024-01-06T07:21:25.068Z,1.55
2024-01-06T07:23:51.921Z,2.85
2024-01-06T07:26:19.028Z,2.97
2024-01-06T07:28:46.016Z,1.67
2024-01-06T07:31:13.278Z,1.23
2024-01-06T07:33:41.100Z,1.25
2024-01-06T07:36:08.298Z,2.40
2024-01-06T07:38:35.115Z,1.67
2024-01-06T07:41:02.042Z,4.03
2024-01-06T07:43:28.899Z,2.92
2024-01-06T07:45:55.823Z,3.42
2024-01-06T07:48:23.234Z,4.57
2024-01-06T07:50:50.933Z,2.88
2024-01-06T07:53:18.073Z,2.30
2024-01-06T07:55:44.942Z,2.35
2024-01-06T07:58:13.023Z,1.20
2024-01-06T08:00:39.947Z,1.55
2024-01-06T08:03:07.509Z,1.67
2024-01-06T08:05:34.657Z,2.75
2024-01-06T08:08:01.636Z,3.22
2024-01-06T08:10:28.398Z,0.98
2024-01-06T08:12:55.948Z,4.38
2024-01-06T08:15:22.852Z,2.28
2024-01-06T08:17:50.302Z,3.08
2024-01-06T08:20:17.129Z,2.05
2024-01-06T08:22:43.975Z,1.38
2024-01-06T08:25:11.933Z,2.35
2024-01-06T08:27:38.768Z,3.40
2024-01-06T08:30:07.844Z,4.30
2024-01-06T08:32:34.972Z,2.45
2024-01-06T08:35:02.087Z,3.75
2024-01-06T08:37:29.085Z,1.92
2024-01-06T08:39:55.988Z,2.10
2024-01-06T08:42:23.202Z,2.08
2024-01-06T08:44:50.214Z,3.60
2024-01-06T08:47:17.037Z,2.20
2024-01-06T08:49:44.077Z,1.65
2024-01-06T08:52:10.921Z,4.25
2024-01-06T08:54:37.741Z,1.70
2024-01-06T08:57:04.984Z,1.90
2024-01-06T08:59:31.805Z,2.67
2024-01-06T09:01:58.626Z,2.58
2024-01-06T09:04:25.576Z,2.15
2024-01-06T09:06:52.638Z,2.00
2024-01-06T09:09:19.636Z,1.38
2024-01-06T09:11:47.521Z,1.60
2024-01-06T09:14:14.349Z,2.08
2024-01-06T09:16:41.329Z,3.08
2024-01-06T09:19:08.909Z,2.20
2024-01-06T09:21:36.950Z,2.60
2024-01-06T09:24:07.388Z,2.58
2024-01-06T09:26:35.126Z,4.13
2024-01-06T09:29:03.802Z,4.85
2024-01-06T09:31:31.318Z,1.98
2024-01-06T09:34:03.552Z,3.05
2024-01-06T09:36:32.811Z,2.67
2024-01-06T09:38:59.944Z,2.85
2024-01-06T09:41:26.897Z,3.20
2024-01-06T09:43:53.753Z,3.60
2024-01-06T09:46:32.692Z,2.85
2024-01-06T09:49:01.241Z,3.05
2024-01-06T09:51:28.468Z,4.35
2024-01-06T09:54:01.339Z,2.75
2024-01-06T09:56:30.653Z,1.40
2024-01-06T09:58:58.278Z,2.55
2024-01-06T10:01:25.464Z,5.43
2024-01-06T10:03:52.678Z,2.45
2024-01-06T10:06:21.506Z,1.65
2024-01-06T10:08:53.540Z,2.30
2024-01-06T10:11:24.061Z,2.50
2024-01-06T10:13:52.310Z,2.60
2024-01-06T10:16:20.268Z,2.88
2024-01-06T10:18:51.462Z,4.25
2024-01-06T10:21:26.206Z,3.20
2024-01-06T10:23:55.550Z,5.38
2024-01-06T10:26:22.823Z,5.15
2024-01-06T10:28:51.218Z,4.85
2024-01-06T10:31:19.157Z,2.88
2024-01-06T10:33:46.621Z,3.38
2024-01-06T10:36:13.778Z,7.32
2024-01-06T10:38:41.635Z,3.40
2024-01-06T10:41:09.062Z,3.65
2024-01-06T10:43:38.525Z,3.10
2024-01-06T10:46:06.250Z,4.47
2024-01-06T10:48:35.354Z,6.13
2024-01-06T10:51:03.784Z,10.93
2024-01-06T10:53:31.733Z,5.93
2024-01-06T10:55:59.367Z,7.47
2024-01-06T10:58:26.863Z,7.13
2024-01-06T11:00:53.999Z,13.30
2024-01-06T11:03:22.099Z,13.15
2024-01-06T11:05:49.670Z,8.40
2024-01-06T11:08:19.096Z,9.40
2024-01-06T11:10:46.606Z,9.38
2024-01-06T11:13:21.935Z,8.70
2024-01-06T11:15:53.248Z,7.57
2024-01-06T11:18:41.105Z,10.18
2024-01-06T11:21:26.008Z,9.70
2024-01-06T11:24:17.595Z,9.02
2024-01-06T11:26:46.281Z,10.20
2024-01-06T11:29:13.728Z,21.05
2024-01-06T11:31:40.868Z,9.00
2024-01-06T11:34:20.187Z,16.90
2024-01-06T11:36:49.572Z,14.07
2024-01-06T11:39:37.806Z,111.38
2024-01-06T11:42:06.745Z,37.35
2024-01-06T11:44:39.893Z,27.92
2024-01-06T11:47:07.765Z,27.27
2024-01-06T11:49:34.970Z,49.70
2024-01-06T11:52:02.216Z,207.35
2024-01-06T11:54:29.098Z,175.40
2024-01-06T11:56:57.131Z,111.20
2024-01-06T11:59:24.228Z,139.23
2024-01-06T12:01:52.291Z,250.25
2024-01-06T12:04:19.525Z,9.90
2024-01-06T12:06:46.704Z,6.07
2024-01-06T12:09:17.507Z,7.43
2024-01-06T12:11:48.070Z,10.70
2024-01-06T12:14:14.962Z,8.68
2024-01-06T12:16:41.774Z,6.20
2024-01-06T12:19:08.768Z,5.50
2024-01-06T12:21:39.128Z,5.93
2024-01-06T12:24:21.824Z,5.53
2024-01-06T12:26:50.013Z,8.63
2024-01-06T12:29:18.736Z,7.07
2024-01-06T12:31:45.905Z,12.00
2024-01-06T12:34:13.028Z,5.32
2024-01-06T12:36:42.070Z,6.00
2024-01-06T12:39:17.518Z,7.15
2024-01-06T12:41:45.047Z,5.38
2024-01-06T12:44:12.034Z,4.45
2024-01-06T12:46:38.847Z,7.82
2024-01-06T12:49:05.852Z,8.80
2024-01-06T12:51:32.829Z,5.38
2024-01-06T12:53:59.699Z,5.22
2024-01-06T12:56:26.511Z,9.65
2024-01-06T12:58:54.210Z,5.13
2024-01-06T13:01:21.214Z,5.75
2024-01-06T13:03:48.428Z,6.38
2024-01-06T13:06:17.102Z,4.90
2024-01-06T13:08:44.219Z,3.78
2024-01-06T13:11:12.035Z,9.60
2024-01-06T13:13:38.833Z,6.40
2024-01-06T13:16:07.139Z,7.68
2024-01-06T13:18:34.144Z,11.98
2024-01-06T13:21:01.047Z,9.43
2024-01-06T13:23:28.171Z,8.45
2024-01-06T13:25:55.143Z,6.93
2024-01-06T13:28:25.200Z,6.53
2024-01-06T13:30:52.347Z,4.50
2024-01-06T13:33:19.491Z,7.15
2024-01-06T13:35:46.744Z,5.05
2024-01-06T13:38:13.677Z,5.05
2024-01-06T13:40:40.492Z,7.80
2024-01-06T13:43:10.268Z,4.05
2024-01-06T13:45:37.436Z,6.90
2024-01-06T13:48:09.222Z,7.68
2024-01-06T13:50:37.070Z,6.40
2024-01-06T13:53:04.429Z,8.10
2024-01-06T13:55:31.193Z,14.38
2024-01-06T13:57:58.037Z,5.25
2024-01-06T14:00:25.541Z,5.20
2024-01-06T14:02:52.979Z,6.35
2024-01-06T14:05:20.674Z,7.30
2024-01-06T14:07:50.415Z,13.65
2024-01-06T14:10:18.173Z,10.68
2024-01-06T14:12:45.184Z,4.85
2024-01-06T14:15:12.192Z,6.93
2024-01-06T14:17:40.701Z,5.50
2024-01-06T14:20:10.722Z,6.18
2024-01-06T14:22:38.434Z,7.63
2024-01-06T14:25:07.531Z,21.15
2024-01-06T14:27:35.265Z,17.30
2024-01-06T14:30:02.399Z,14.90
2024-01-06T14:32:30.345Z,120.53
2024-01-06T14:34:57.500Z,27.08
2024-01-06T14:37:24.728Z,77.10
2024-01-06T14:39:51.789Z,185.73
2024-01-06T14:42:20.490Z,565.47
2024-01-06T14:44:47.445Z,107.65
2024-01-06T14:47:14.325Z,11.68
2024-01-06T14:49:41.359Z,8.48
2024-01-06T14:52:08.623Z,14.95
2024-01-06T14:54:36.821Z,19.58
2024-01-06T14:57:03.835Z,429.33
2024-01-06T14:59:30.633Z,496.50
2024-01-06T15:01:57.648Z,735.78
2024-01-06T15:04:25.796Z,384.38
2024-01-06T15:06:53.695Z,383.00
2024-01-06T15:09:21.318Z,74.85
2024-01-06T15:11:48.482Z,10.95
2024-01-06T15:14:15.382Z,13.32
2024-01-06T15:16:42.342Z,15.70
2024-01-06T15:19:09.526Z,15.15
2024-01-06T15:21:38.008Z,56.30
2024-01-06T15:24:06.122Z,72.97
2024-01-06T15:26:33.076Z,391.92
2024-01-06T15:29:01.644Z,280.10
2024-01-06T15:31:31.417Z,632.60
2024-01-06T15:33:58.542Z,452.02
2024-01-06T15:36:25.453Z,221.25
2024-01-06T15:38:52.866Z,126.13
2024-01-06T15:41:19.710Z,36.30
2024-01-06T15:43:46.611Z,253.10
2024-01-06T15:46:16.744Z,325.60
2024-01-06T15:48:43.835Z,662.88
2024-01-06T15:51:11.099Z,413.55
2024-01-06T15:53:38.035Z,290.60
2024-01-06T15:56:05.120Z,382.00
2024-01-06T15:58:33.002Z,443.58
2024-01-06T16:00:59.946Z,648.15
2024-01-06T16:03:26.978Z,411.65
2024-01-06T16:05:54.006Z,452.55
2024-01-06T16:08:20.768Z,454.80
2024-01-06T16:10:47.575Z,510.45
2024-01-06T16:13:14.405Z,668.80
2024-01-06T16:15:41.312Z,546.20
2024-01-06T16:18:08.258Z,774.15
2024-01-06T16:20:35.122Z,664.42
2024-01-06T16:23:02.054Z,488.55
2024-01-06T16:25:28.855Z,798.65
2024-01-06T16:27:56.116Z,521.17
2024-01-06T16:30:23.398Z,701.42
2024-01-06T16:32:52.047Z,726.03
2024-01-06T16:35:19.025Z,768.33
2024-01-06T16:37:45.943Z,411.17
2024-01-06T16:40:13.156Z,630.85
2024-01-06T16:42:41.490Z,370.23
2024-01-06T16:45:09.011Z,454.95
2024-01-06T16:47:35.928Z,523.33
2024-01-06T16:50:02.807Z,382.33
2024-01-06T16:52:29.639Z,378.58
2024-01-06T16:54:56.904Z,239.13
2024-01-06T16:57:23.764Z,226.30
2024-01-06T16:59:50.551Z,761.22
2024-01-06T17:02:17.392Z,750.72
2024-01-06T17:04:44.384Z,676.55
2024-01-06T17:07:11.445Z,578.63
2024-01-06T17:09:38.407Z,740.90
2024-01-06T17:12:05.906Z,829.60
2024-01-06T17:14:32.991Z,806.22
2024-01-06T17:16:59.874Z,726.75
2024-01-06T17:19:27.103Z,927.95
2024-01-06T17:21:54.078Z,765.00
2024-01-06T17:24:21.013Z,726.83
2024-01-06T17:26:47.863Z,878.90
2024-01-06T17:29:14.661Z,696.92
2024-01-06T17:31:41.748Z,637.25
2024-01-06T17:34:09.675Z,499.38
2024-01-06T17:36:37.913Z,930.67
2024-01-06T17:39:05.306Z,408.52
2024-01-06T17:41:37.831Z,639.17
2024-01-06T17:44:10.705Z,250.57
2024-01-06T17:46:38.021Z,247.18
2024-01-06T17:49:07.574Z,712.97
2024-01-06T17:51:35.765Z,324.15
2024-01-06T17:54:03.224Z,825.80
2024-01-06T17:56:30.076Z,1068.07
2024-01-06T17:59:02.460Z,1226.68
2024-01-06T18:01:29.994Z,971.90
2024-01-06T18:03:57.139Z,1065.75
2024-01-06T18:06:29.225Z,1000.75
2024-01-06T18:08:56.183Z,1187.28
2024-01-06T18:11:23.000Z,906.08
2024-01-06T18:13:50.057Z,1138.55
2024-01-06T18:16:16.962Z,914.80
2024-01-06T18:18:43.945Z,1022.80
2024-01-06T18:21:11.172Z,1007.30
2024-01-06T18:23:38.066Z,1105.93
2024-01-06T18:26:05.197Z,1224.07
2024-01-06T18:28:33.441Z,1035.55
2024-01-06T18:31:00.712Z,1027.05
2024-01-06T18:33:27.921Z,1052.10
2024-01-06T18:35:54.853Z,773.00
2024-01-06T18:38:21.748Z,915.65
2024-01-06T18:40:48.610Z,987.65
2024-01-06T18:43:15.464Z,1206.65
2024-01-06T18:45:43.415Z,1128.18
2024-01-06T18:48:11.394Z,1067.28
2024-01-06T18:50:39.036Z,752.50
2024-01-06T18:53:05.931Z,931.08
2024-01-06T18:55:32.906Z,928.53
2024-01-06T18:58:01.244Z,839.92
2024-01-06T19:00:28.150Z,802.60
2024-01-06T19:02:55.115Z,795.58
2024-01-06T19:05:22.249Z,715.08
2024-01-06T19:07:49.221Z,694.35
2024-01-06T19:10:16.345Z,1057.97
2024-01-06T19:12:43.269Z,758.33
2024-01-06T19:15:10.532Z,751.25
2024-01-06T19:17:38.251Z,854.53
2024-01-06T19:20:06.632Z,841.47
2024-01-06T19:22:33.392Z,670.22
2024-01-06T19:25:00.204Z,553.75
2024-01-06T19:27:27.055Z,573.95
2024-01-06T19:29:54.237Z,500.25
2024-01-06T19:32:21.144Z,682.95
2024-01-06T19:34:51.819Z,577.65
2024-01-06T19:37:18.678Z,518.20
2024-01-06T19:39:45.564Z,551.83
2024-01-06T19:42:12.382Z,709.33
2024-01-06T19:44:40.100Z,762.75
2024-01-06T19:47:09.385Z,632.22
2024-01-06T19:49:36.231Z,525.50
2024-01-06T19:52:03.246Z,346.00
2024-01-06T19:54:33.359Z,536.38
2024-01-06T19:57:00.631Z,446.27
2024-01-06T19:59:27.397Z,463.60
2024-01-06T20:01:54.236Z,346.60
2024-01-06T20:04:21.093Z,333.20
2024-01-06T20:06:48.086Z,543.80
2024-01-06T20:09:15.939Z,659.33
2024-01-06T20:11:43.386Z,574.78
2024-01-06T20:14:10.240Z,503.63
2024-01-06T20:16:37.048Z,58.17
2024-01-06T20:19:04.608Z,95.80
2024-01-06T20:21:31.891Z,76.32
2024-01-06T20:23:58.768Z,625.55
2024-01-06T20:26:27.096Z,509.95
2024-01-06T20:28:54.134Z,356.63
2024-01-06T20:31:21.242Z,116.03
2024-01-06T20:33:48.223Z,567.00
2024-01-06T20:36:16.063Z,323.15
2024-01-06T20:38:45.174Z,612.35
2024-01-06T20:41:12.090Z,587.88
2024-01-06T20:43:39.114Z,528.20
2024-01-06T20:46:06.195Z,783.67
2024-01-06T20:48:33.519Z,829.97
2024-01-06T20:51:02.959Z,880.83
2024-01-06T20:53:29.752Z,835.90
2024-01-06T20:55:56.513Z,689.22
2024-01-06T20:58:23.797Z,606.78
2024-01-06T21:00:51.023Z,753.50
2024-01-06T21:03:17.938Z,501.73
2024-01-06T21:05:45.483Z,305.80
2024-01-06T21:08:12.489Z,27.02
2024-01-06T21:10:39.330Z,30.10
2024-01-06T21:13:06.174Z,10.77
2024-01-06T21:15:33.205Z,11.50
2024-01-06T21:18:00.356Z,10.02
2024-01-06T21:20:27.271Z,6.90
2024-01-06T21:22:54.057Z,10.52
2024-01-06T21:25:22.723Z,12.30
2024-01-06T21:27:50.104Z,15.23
2024-01-06T21:30:17.059Z,13.02
2024-01-06T21:32:43.874Z,14.10
2024-01-06T21:35:10.805Z,14.35
2024-01-06T21:37:37.710Z,15.85
2024-01-06T21:40:08.207Z,22.70
2024-01-06T21:42:36.157Z,482.60
2024-01-06T21:45:04.439Z,448.08
2024-01-06T21:47:31.476Z,570.15
2024-01-06T21:49:58.449Z,786.90
2024-01-06T21:52:25.250Z,773.92
2024-01-06T21:54:52.126Z,671.15
2024-01-06T21:57:19.895Z,800.67
2024-01-06T21:59:46.784Z,205.60
2024-01-06T22:02:13.587Z,205.35
2024-01-06T22:04:42.119Z,243.25
2024-01-06T22:07:09.012Z,366.08
2024-01-06T22:09:36.483Z,130.35
2024-01-06T22:12:03.761Z,549.53
2024-01-06T22:14:30.804Z,672.58
2024-01-06T22:16:57.609Z,570.22
2024-01-06T22:19:24.531Z,556.55
2024-01-06T22:21:51.421Z,978.90
2024-01-06T22:24:18.328Z,750.30
2024-01-06T22:26:46.473Z,694.85
2024-01-06T22:29:13.709Z,945.70
2024-01-06T22:31:44.501Z,1165.03
2024-01-06T22:34:13.778Z,1071.68
2024-01-06T22:36:41.621Z,1160.18
2024-01-06T22:39:11.444Z,1222.07
2024-01-06T22:41:38.682Z,983.60
2024-01-06T22:44:07.098Z,1211.00
2024-01-06T22:46:33.889Z,1212.13
2024-01-06T22:49:00.800Z,1048.57
2024-01-06T22:51:27.786Z,829.03
2024-01-06T22:53:54.767Z,917.35
2024-01-06T22:56:21.576Z,1069.00
2024-01-06T22:58:48.407Z,1093.90
2024-01-06T23:01:15.277Z,1010.53
2024-01-06T23:03:42.235Z,1026.68
2024-01-06T23:06:09.448Z,974.50
2024-01-06T23:08:36.531Z,985.55
2024-01-06T23:11:04.798Z,1241.70
2024-01-06T23:13:32.242Z,701.05
2024-01-06T23:15:59.576Z,760.45
2024-01-06T23:18:26.825Z,657.08
2024-01-06T23:20:53.746Z,428.00
2024-01-06T23:23:20.636Z,661.20
2024-01-06T23:25:47.551Z,783.70
2024-01-06T23:28:14.337Z,706.67
2024-01-06T23:30:42.195Z,766.80
2024-01-06T23:33:09.368Z,921.13
2024-01-06T23:35:36.175Z,781.55
2024-01-06T23:38:03.078Z,911.00
2024-01-06T23:40:29.904Z,844.97
2024-01-06T23:42:56.837Z,705.63
2024-01-06T23:45:23.949Z,934.72
2024-01-06T23:47:51.451Z,943.85
2024-01-06T23:50:19.147Z,832.65
2024-01-06T23:52:45.949Z,667.95
2024-01-06T23:55:13.359Z,982.58
2024-01-06T23:57:40.595Z,794.88
